sensor_id;sensor_type;location;lat;lon;timestamp;P1;durP1;ratioP1;P2;durP2;ratioP2
2111;SDS011;1062;52.538;13.400;2024-02-26T00:00:30;13.50;;;10.20;;
2111;SDS011;1062;52.538;13.400;2024-02-26T00:02:56;12.23;;;10.20;;
2111;SDS011;1062;52.538;13.400;2024-02-26T00:05:21;11.53;;;8.60;;
2111;SDS011;1062;52.538;13.400;2024-02-26T00:07:47;16.30;;;10.50;;
2111;SDS011;1062;52.538;13.400;2024-02-26T00:10:13;13.73;;;10.47;;
2111;SDS011;1062;52.538;13.400;2024-02-26T00:12:39;16.50;;;10.07;;
2111;SDS011;1062;52.538;13.400;2024-02-26T00:15:09;16.03;;;10.07;;
2111;SDS011;1062;52.538;13.400;2024-02-26T00:17:35;12.53;;;11.23;;
2111;SDS011;1062;52.538;13.400;2024-02-26T00:20:01;11.43;;;10.07;;
2111;SDS011;1062;52.538;13.400;2024-02-26T00:22:29;11.50;;;10.00;;
2111;SDS011;1062;52.538;13.400;2024-02-26T00:24:55;13.60;;;9.20;;
2111;SDS011;1062;52.538;13.400;2024-02-26T00:27:21;17.37;;;9.90;;
2111;SDS011;1062;52.538;13.400;2024-02-26T00:29:46;16.90;;;10.60;;
2111;SDS011;1062;52.538;13.400;2024-02-26T00:32:12;15.10;;;10.33;;
2111;SDS011;1062;52.538;13.400;2024-02-26T00:34:37;15.47;;;9.60;;
2111;SDS011;1062;52.538;13.400;2024-02-26T00:37:03;15.30;;;9.77;;
2111;SDS011;1062;52.538;13.400;2024-02-26T00:39:29;11.20;;;9.97;;
2111;SDS011;1062;52.538;13.400;2024-02-26T00:41:54;12.67;;;9.97;;
2111;SDS011;1062;52.538;13.400;2024-02-26T00:44:20;16.73;;;9.50;;
2111;SDS011;1062;52.538;13.400;2024-02-26T00:46:45;10.67;;;8.83;;
2111;SDS011;1062;52.538;13.400;2024-02-26T00:49:11;13.70;;;10.93;;
2111;SDS011;1062;52.538;13.400;2024-02-26T00:51:36;15.13;;;10.40;;
2111;SDS011;1062;52.538;13.400;2024-02-26T00:54:02;12.87;;;10.53;;
2111;SDS011;1062;52.538;13.400;2024-02-26T00:56:28;11.63;;;10.00;;
2111;SDS011;1062;52.538;13.400;2024-02-26T00:58:53;12.07;;;10.30;;
2111;SDS011;1062;52.538;13.400;2024-02-26T01:01:19;11.00;;;9.30;;
2111;SDS011;1062;52.538;13.400;2024-02-26T01:03:45;13.70;;;8.90;;
2111;SDS011;1062;52.538;13.400;2024-02-26T01:06:10;12.07;;;9.40;;
2111;SDS011;1062;52.538;13.400;2024-02-26T01:08:36;12.60;;;10.80;;
2111;SDS011;1062;52.538;13.400;2024-02-26T01:11:02;12.70;;;9.83;;
2111;SDS011;1062;52.538;13.400;2024-02-26T01:13:28;10.90;;;9.83;;
2111;SDS011;1062;52.538;13.400;2024-02-26T01:15:54;11.03;;;9.83;;
2111;SDS011;1062;52.538;13.400;2024-02-26T01:18:20;14.77;;;10.93;;
2111;SDS011;1062;52.538;13.400;2024-02-26T01:20:45;12.20;;;9.83;;
2111;SDS011;1062;52.538;13.400;2024-02-26T01:23:12;12.63;;;9.60;;
2111;SDS011;1062;52.538;13.400;2024-02-26T01:25:37;9.97;;;8.80;;
2111;SDS011;1062;52.538;13.400;2024-02-26T01:28:04;10.57;;;8.70;;
2111;SDS011;1062;52.538;13.400;2024-02-26T01:30:30;13.53;;;9.30;;
2111;SDS011;1062;52.538;13.400;2024-02-26T01:32:56;12.80;;;9.27;;
2111;SDS011;1062;52.538;13.400;2024-02-26T01:35:22;9.50;;;8.50;;
2111;SDS011;1062;52.538;13.400;2024-02-26T01:37:47;12.20;;;10.77;;
2111;SDS011;1062;52.538;13.400;2024-02-26T01:40:13;11.67;;;9.97;;
2111;SDS011;1062;52.538;13.400;2024-02-26T01:42:42;13.10;;;10.87;;
2111;SDS011;1062;52.538;13.400;2024-02-26T01:45:11;11.90;;;9.73;;
2111;SDS011;1062;52.538;13.400;2024-02-26T01:47:41;10.00;;;8.83;;
2111;SDS011;1062;52.538;13.400;2024-02-26T01:50:07;13.30;;;9.67;;
2111;SDS011;1062;52.538;13.400;2024-02-26T01:52:33;11.30;;;9.97;;
2111;SDS011;1062;52.538;13.400;2024-02-26T01:55:00;12.47;;;9.33;;
2111;SDS011;1062;52.538;13.400;2024-02-26T01:57:27;12.80;;;9.83;;
2111;SDS011;1062;52.538;13.400;2024-02-26T01:59:53;10.93;;;9.70;;
2111;SDS011;1062;52.538;13.400;2024-02-26T02:02:19;12.90;;;10.00;;
2111;SDS011;1062;52.538;13.400;2024-02-26T02:04:45;10.50;;;9.03;;
2111;SDS011;1062;52.538;13.400;2024-02-26T02:07:11;11.17;;;9.47;;
2111;SDS011;1062;52.538;13.400;2024-02-26T02:09:37;8.87;;;8.03;;
2111;SDS011;1062;52.538;13.400;2024-02-26T02:12:03;10.63;;;8.67;;
2111;SDS011;1062;52.538;13.400;2024-02-26T02:14:29;9.80;;;7.90;;
2111;SDS011;1062;52.538;13.400;2024-02-26T02:16:54;8.63;;;6.97;;
2111;SDS011;1062;52.538;13.400;2024-02-26T02:19:20;9.37;;;8.27;;
2111;SDS011;1062;52.538;13.400;2024-02-26T02:21:45;8.60;;;6.80;;
2111;SDS011;1062;52.538;13.400;2024-02-26T02:24:11;8.63;;;7.83;;
2111;SDS011;1062;52.538;13.400;2024-02-26T02:26:36;13.30;;;7.57;;
2111;SDS011;1062;52.538;13.400;2024-02-26T02:29:02;8.10;;;7.30;;
2111;SDS011;1062;52.538;13.400;2024-02-26T02:31:28;8.73;;;7.30;;
2111;SDS011;1062;52.538;13.400;2024-02-26T02:33:54;8.03;;;7.17;;
2111;SDS011;1062;52.538;13.400;2024-02-26T02:36:20;9.67;;;6.47;;
2111;SDS011;1062;52.538;13.400;2024-02-26T02:38:48;11.13;;;7.80;;
2111;SDS011;1062;52.538;13.400;2024-02-26T02:41:15;7.03;;;5.73;;
2111;SDS011;1062;52.538;13.400;2024-02-26T02:43:41;7.40;;;6.60;;
2111;SDS011;1062;52.538;13.400;2024-02-26T02:46:06;7.87;;;6.97;;
2111;SDS011;1062;52.538;13.400;2024-02-26T02:48:32;6.70;;;6.20;;
2111;SDS011;1062;52.538;13.400;2024-02-26T02:50:58;8.10;;;6.17;;
2111;SDS011;1062;52.538;13.400;2024-02-26T02:53:23;9.33;;;6.50;;
2111;SDS011;1062;52.538;13.400;2024-02-26T02:55:49;7.20;;;6.50;;
2111;SDS011;1062;52.538;13.400;2024-02-26T02:58:14;8.27;;;5.90;;
2111;SDS011;1062;52.538;13.400;2024-02-26T03:00:40;6.23;;;5.30;;
2111;SDS011;1062;52.538;13.400;2024-02-26T03:03:06;7.23;;;6.53;;
2111;SDS011;1062;52.538;13.400;2024-02-26T03:05:31;7.63;;;6.83;;
2111;SDS011;1062;52.538;13.400;2024-02-26T03:07:57;6.77;;;6.17;;
2111;SDS011;1062;52.538;13.400;2024-02-26T03:10:23;10.03;;;7.90;;
2111;SDS011;1062;52.538;13.400;2024-02-26T03:12:49;7.17;;;6.47;;
2111;SDS011;1062;52.538;13.400;2024-02-26T03:15:15;11.20;;;7.20;;
2111;SDS011;1062;52.538;13.400;2024-02-26T03:17:40;7.97;;;7.27;;
2111;SDS011;1062;52.538;13.400;2024-02-26T03:20:06;9.73;;;7.37;;
2111;SDS011;1062;52.538;13.400;2024-02-26T03:22:33;11.80;;;8.00;;
2111;SDS011;1062;52.538;13.400;2024-02-26T03:24:59;7.20;;;6.50;;
2111;SDS011;1062;52.538;13.400;2024-02-26T03:27:24;10.10;;;8.83;;
2111;SDS011;1062;52.538;13.400;2024-02-26T03:29:50;8.70;;;6.70;;
2111;SDS011;1062;52.538;13.400;2024-02-26T03:32:16;12.73;;;7.33;;
2111;SDS011;1062;52.538;13.400;2024-02-26T03:34:41;8.60;;;7.27;;
2111;SDS011;1062;52.538;13.400;2024-02-26T03:37:07;15.33;;;9.57;;
2111;SDS011;1062;52.538;13.400;2024-02-26T03:39:35;9.17;;;8.10;;
2111;SDS011;1062;52.538;13.400;2024-02-26T03:42:00;9.50;;;8.47;;
2111;SDS011;1062;52.538;13.400;2024-02-26T03:44:27;9.60;;;8.70;;
2111;SDS011;1062;52.538;13.400;2024-02-26T03:46:52;12.20;;;9.40;;
2111;SDS011;1062;52.538;13.400;2024-02-26T03:49:18;11.63;;;8.10;;
2111;SDS011;1062;52.538;13.400;2024-02-26T03:51:44;9.63;;;8.70;;
2111;SDS011;1062;52.538;13.400;2024-02-26T03:54:09;12.40;;;10.83;;
2111;SDS011;1062;52.538;13.400;2024-02-26T03:56:35;11.40;;;9.03;;
2111;SDS011;1062;52.538;13.400;2024-02-26T03:59:01;10.77;;;9.47;;
2111;SDS011;1062;52.538;13.400;2024-02-26T04:01:27;8.80;;;7.87;;
2111;SDS011;1062;52.538;13.400;2024-02-26T04:03:53;9.53;;;7.67;;
2111;SDS011;1062;52.538;13.400;2024-02-26T04:06:19;8.57;;;7.70;;
2111;SDS011;1062;52.538;13.400;2024-02-26T04:08:46;8.87;;;7.97;;
2111;SDS011;1062;52.538;13.400;2024-02-26T04:11:12;8.53;;;6.80;;
2111;SDS011;1062;52.538;13.400;2024-02-26T04:13:37;9.80;;;7.60;;
2111;SDS011;1062;52.538;13.400;2024-02-26T04:16:06;10.03;;;7.83;;
2111;SDS011;1062;52.538;13.400;2024-02-26T04:18:32;8.70;;;7.00;;
2111;SDS011;1062;52.538;13.400;2024-02-26T04:20:58;7.93;;;7.13;;
2111;SDS011;1062;52.538;13.400;2024-02-26T04:23:24;8.97;;;8.10;;
2111;SDS011;1062;52.538;13.400;2024-02-26T04:25:50;11.43;;;7.07;;
2111;SDS011;1062;52.538;13.400;2024-02-26T04:28:15;8.03;;;7.13;;
2111;SDS011;1062;52.538;13.400;2024-02-26T04:30:41;8.47;;;7.20;;
2111;SDS011;1062;52.538;13.400;2024-02-26T04:33:07;11.13;;;8.07;;
2111;SDS011;1062;52.538;13.400;2024-02-26T04:35:32;9.90;;;7.43;;
2111;SDS011;1062;52.538;13.400;2024-02-26T04:38:00;9.00;;;7.50;;
2111;SDS011;1062;52.538;13.400;2024-02-26T04:40:26;7.97;;;7.07;;
2111;SDS011;1062;52.538;13.400;2024-02-26T04:42:51;9.00;;;7.87;;
2111;SDS011;1062;52.538;13.400;2024-02-26T04:45:17;9.37;;;7.90;;
2111;SDS011;1062;52.538;13.400;2024-02-26T04:47:43;9.43;;;8.50;;
2111;SDS011;1062;52.538;13.400;2024-02-26T04:50:08;11.30;;;8.60;;
2111;SDS011;1062;52.538;13.400;2024-02-26T04:52:34;11.23;;;7.87;;
2111;SDS011;1062;52.538;13.400;2024-02-26T04:55:01;12.23;;;9.30;;
2111;SDS011;1062;52.538;13.400;2024-02-26T04:57:27;13.50;;;8.27;;
2111;SDS011;1062;52.538;13.400;2024-02-26T04:59:53;12.20;;;9.10;;
2111;SDS011;1062;52.538;13.400;2024-02-26T05:02:18;13.00;;;8.90;;
2111;SDS011;1062;52.538;13.400;2024-02-26T05:04:44;12.33;;;9.40;;
2111;SDS011;1062;52.538;13.400;2024-02-26T05:07:09;10.90;;;8.80;;
2111;SDS011;1062;52.538;13.400;2024-02-26T05:09:35;10.27;;;8.60;;
2111;SDS011;1062;52.538;13.400;2024-02-26T05:12:01;10.03;;;8.57;;
2111;SDS011;1062;52.538;13.400;2024-02-26T05:14:27;12.07;;;8.50;;
2111;SDS011;1062;52.538;13.400;2024-02-26T05:16:52;9.80;;;8.10;;
2111;SDS011;1062;52.538;13.400;2024-02-26T05:19:18;12.90;;;9.13;;
2111;SDS011;1062;52.538;13.400;2024-02-26T05:21:43;11.13;;;9.40;;
2111;SDS011;1062;52.538;13.400;2024-02-26T05:24:09;10.97;;;8.30;;
2111;SDS011;1062;52.538;13.400;2024-02-26T05:26:35;10.30;;;8.10;;
2111;SDS011;1062;52.538;13.400;2024-02-26T05:29:01;14.93;;;10.40;;
2111;SDS011;1062;52.538;13.400;2024-02-26T05:31:26;12.50;;;9.57;;
2111;SDS011;1062;52.538;13.400;2024-02-26T05:33:53;12.87;;;9.60;;
2111;SDS011;1062;52.538;13.400;2024-02-26T05:36:22;9.80;;;8.80;;
2111;SDS011;1062;52.538;13.400;2024-02-26T05:38:49;11.10;;;9.87;;
2111;SDS011;1062;52.538;13.400;2024-02-26T05:41:15;12.23;;;9.87;;
2111;SDS011;1062;52.538;13.400;2024-02-26T05:43:41;13.17;;;10.93;;
2111;SDS011;1062;52.538;13.400;2024-02-26T05:46:07;16.33;;;10.47;;
2111;SDS011;1062;52.538;13.400;2024-02-26T05:48:33;13.30;;;11.03;;
2111;SDS011;1062;52.538;13.400;2024-02-26T05:50:59;16.10;;;11.37;;
2111;SDS011;1062;52.538;13.400;2024-02-26T05:53:24;14.70;;;11.30;;
2111;SDS011;1062;52.538;13.400;2024-02-26T05:55:50;12.40;;;10.60;;
2111;SDS011;1062;52.538;13.400;2024-02-26T05:58:16;14.50;;;11.43;;
2111;SDS011;1062;52.538;13.400;2024-02-26T06:00:41;13.00;;;11.50;;
2111;SDS011;1062;52.538;13.400;2024-02-26T06:03:07;13.63;;;10.57;;
2111;SDS011;1062;52.538;13.400;2024-02-26T06:05:32;13.27;;;10.87;;
2111;SDS011;1062;52.538;13.400;2024-02-26T06:07:58;16.83;;;12.80;;
2111;SDS011;1062;52.538;13.400;2024-02-26T06:10:24;12.93;;;10.27;;
2111;SDS011;1062;52.538;13.400;2024-02-26T06:12:49;13.60;;;10.80;;
2111;SDS011;1062;52.538;13.400;2024-02-26T06:15:15;15.30;;;11.93;;
2111;SDS011;1062;52.538;13.400;2024-02-26T06:17:41;16.97;;;11.80;;
2111;SDS011;1062;52.538;13.400;2024-02-26T06:20:07;21.33;;;13.07;;
2111;SDS011;1062;52.538;13.400;2024-02-26T06:22:36;14.90;;;12.00;;
2111;SDS011;1062;52.538;13.400;2024-02-26T06:25:02;19.47;;;11.93;;
2111;SDS011;1062;52.538;13.400;2024-02-26T06:27:28;13.40;;;10.80;;
2111;SDS011;1062;52.538;13.400;2024-02-26T06:29:53;14.87;;;11.90;;
2111;SDS011;1062;52.538;13.400;2024-02-26T06:32:19;15.90;;;11.70;;
2111;SDS011;1062;52.538;13.400;2024-02-26T06:34:45;15.13;;;12.17;;
2111;SDS011;1062;52.538;13.400;2024-02-26T06:37:10;16.47;;;12.40;;
2111;SDS011;1062;52.538;13.400;2024-02-26T06:39:36;17.37;;;12.53;;
2111;SDS011;1062;52.538;13.400;2024-02-26T06:42:03;20.00;;;13.43;;
2111;SDS011;1062;52.538;13.400;2024-02-26T06:44:28;17.13;;;12.10;;
2111;SDS011;1062;52.538;13.400;2024-02-26T06:46:57;23.57;;;13.63;;
2111;SDS011;1062;52.538;13.400;2024-02-26T06:49:24;16.87;;;13.90;;
2111;SDS011;1062;52.538;13.400;2024-02-26T06:51:49;14.73;;;13.10;;
2111;SDS011;1062;52.538;13.400;2024-02-26T06:54:15;17.00;;;12.10;;
2111;SDS011;1062;52.538;13.400;2024-02-26T06:56:41;16.83;;;13.90;;
2111;SDS011;1062;52.538;13.400;2024-02-26T06:59:06;19.83;;;12.60;;
2111;SDS011;1062;52.538;13.400;2024-02-26T07:01:32;22.70;;;14.20;;
2111;SDS011;1062;52.538;13.400;2024-02-26T07:03:57;20.13;;;12.13;;
2111;SDS011;1062;52.538;13.400;2024-02-26T07:06:23;17.67;;;12.63;;
2111;SDS011;1062;52.538;13.400;2024-02-26T07:08:48;18.97;;;13.27;;
2111;SDS011;1062;52.538;13.400;2024-02-26T07:11:14;17.03;;;11.23;;
2111;SDS011;1062;52.538;13.400;2024-02-26T07:13:39;16.70;;;12.17;;
2111;SDS011;1062;52.538;13.400;2024-02-26T07:16:05;16.90;;;13.40;;
2111;SDS011;1062;52.538;13.400;2024-02-26T07:18:33;14.53;;;10.97;;
2111;SDS011;1062;52.538;13.400;2024-02-26T07:21:01;16.00;;;9.90;;
2111;SDS011;1062;52.538;13.400;2024-02-26T07:23:27;14.30;;;9.93;;
2111;SDS011;1062;52.538;13.400;2024-02-26T07:25:53;16.33;;;10.43;;
2111;SDS011;1062;52.538;13.400;2024-02-26T07:28:18;15.87;;;11.60;;
2111;SDS011;1062;52.538;13.400;2024-02-26T07:30:44;12.43;;;9.83;;
2111;SDS011;1062;52.538;13.400;2024-02-26T07:33:11;14.67;;;9.73;;
2111;SDS011;1062;52.538;13.400;2024-02-26T07:35:36;12.27;;;10.10;;
2111;SDS011;1062;52.538;13.400;2024-02-26T07:38:04;12.13;;;10.83;;
2111;SDS011;1062;52.538;13.400;2024-02-26T07:40:30;11.63;;;10.40;;
2111;SDS011;1062;52.538;13.400;2024-02-26T07:42:55;11.83;;;10.33;;
2111;SDS011;1062;52.538;13.400;2024-02-26T07:45:21;15.00;;;10.57;;
2111;SDS011;1062;52.538;13.400;2024-02-26T07:47:47;12.13;;;10.87;;
2111;SDS011;1062;52.538;13.400;2024-02-26T07:50:13;15.93;;;12.07;;
2111;SDS011;1062;52.538;13.400;2024-02-26T07:52:39;14.27;;;11.03;;
2111;SDS011;1062;52.538;13.400;2024-02-26T07:55:05;14.50;;;10.50;;
2111;SDS011;1062;52.538;13.400;2024-02-26T07:57:34;12.80;;;10.00;;
2111;SDS011;1062;52.538;13.400;2024-02-26T08:00:00;13.23;;;10.60;;
2111;SDS011;1062;52.538;13.400;2024-02-26T08:02:27;18.47;;;11.80;;
2111;SDS011;1062;52.538;13.400;2024-02-26T08:04:53;12.87;;;10.53;;
2111;SDS011;1062;52.538;13.400;2024-02-26T08:07:18;13.27;;;10.10;;
2111;SDS011;1062;52.538;13.400;2024-02-26T08:09:46;12.37;;;10.40;;
2111;SDS011;1062;52.538;13.400;2024-02-26T08:12:12;10.90;;;9.80;;
2111;SDS011;1062;52.538;13.400;2024-02-26T08:14:37;12.03;;;10.57;;
2111;SDS011;1062;52.538;13.400;2024-02-26T08:17:03;14.07;;;10.70;;
2111;SDS011;1062;52.538;13.400;2024-02-26T08:19:28;13.30;;;11.17;;
2111;SDS011;1062;52.538;13.400;2024-02-26T08:21:54;14.03;;;12.07;;
2111;SDS011;1062;52.538;13.400;2024-02-26T08:24:20;14.17;;;12.03;;
2111;SDS011;1062;52.538;13.400;2024-02-26T08:26:45;15.10;;;12.13;;
2111;SDS011;1062;52.538;13.400;2024-02-26T08:29:11;16.40;;;12.20;;
2111;SDS011;1062;52.538;13.400;2024-02-26T08:31:36;15.70;;;10.77;;
2111;SDS011;1062;52.538;13.400;2024-02-26T08:34:03;13.47;;;11.90;;
2111;SDS011;1062;52.538;13.400;2024-02-26T08:36:29;12.60;;;9.73;;
2111;SDS011;1062;52.538;13.400;2024-02-26T08:38:56;19.37;;;12.33;;
2111;SDS011;1062;52.538;13.400;2024-02-26T08:41:22;16.43;;;12.70;;
2111;SDS011;1062;52.538;13.400;2024-02-26T08:43:47;18.13;;;13.37;;
2111;SDS011;1062;52.538;13.400;2024-02-26T08:46:13;13.20;;;10.33;;
2111;SDS011;1062;52.538;13.400;2024-02-26T08:48:39;12.40;;;11.10;;
2111;SDS011;1062;52.538;13.400;2024-02-26T08:51:06;17.27;;;11.50;;
2111;SDS011;1062;52.538;13.400;2024-02-26T08:53:32;13.57;;;11.17;;
2111;SDS011;1062;52.538;13.400;2024-02-26T08:55:58;12.40;;;11.10;;
2111;SDS011;1062;52.538;13.400;2024-02-26T08:58:23;15.10;;;11.00;;
2111;SDS011;1062;52.538;13.400;2024-02-26T09:00:49;12.37;;;10.37;;
2111;SDS011;1062;52.538;13.400;2024-02-26T09:03:15;13.90;;;11.70;;
2111;SDS011;1062;52.538;13.400;2024-02-26T09:05:41;12.10;;;10.37;;
2111;SDS011;1062;52.538;13.400;2024-02-26T09:08:07;15.93;;;12.70;;
2111;SDS011;1062;52.538;13.400;2024-02-26T09:10:32;13.13;;;11.83;;
2111;SDS011;1062;52.538;13.400;2024-02-26T09:12:58;16.23;;;11.13;;
2111;SDS011;1062;52.538;13.400;2024-02-26T09:15:23;14.80;;;11.07;;
2111;SDS011;1062;52.538;13.400;2024-02-26T09:17:49;14.50;;;11.50;;
2111;SDS011;1062;52.538;13.400;2024-02-26T09:20:15;12.03;;;10.80;;
2111;SDS011;1062;52.538;13.400;2024-02-26T09:22:45;13.40;;;9.80;;
2111;SDS011;1062;52.538;13.400;2024-02-26T09:25:12;13.73;;;10.93;;
2111;SDS011;1062;52.538;13.400;2024-02-26T09:27:38;14.20;;;11.07;;
2111;SDS011;1062;52.538;13.400;2024-02-26T09:30:04;13.67;;;11.53;;
2111;SDS011;1062;52.538;13.400;2024-02-26T09:32:30;11.80;;;10.60;;
2111;SDS011;1062;52.538;13.400;2024-02-26T09:34:55;14.73;;;10.07;;
2111;SDS011;1062;52.538;13.400;2024-02-26T09:37:21;15.97;;;11.70;;
2111;SDS011;1062;52.538;13.400;2024-02-26T09:39:46;12.83;;;11.60;;
2111;SDS011;1062;52.538;13.400;2024-02-26T09:42:12;12.53;;;10.23;;
2111;SDS011;1062;52.538;13.400;2024-02-26T09:44:39;12.33;;;10.07;;
2111;SDS011;1062;52.538;13.400;2024-02-26T09:47:07;14.10;;;10.43;;
2111;SDS011;1062;52.538;13.400;2024-02-26T09:49:35;12.80;;;11.40;;
2111;SDS011;1062;52.538;13.400;2024-02-26T09:52:01;14.37;;;11.43;;
2111;SDS011;1062;52.538;13.400;2024-02-26T09:54:29;12.20;;;10.77;;
2111;SDS011;1062;52.538;13.400;2024-02-26T09:56:58;13.37;;;10.23;;
2111;SDS011;1062;52.538;13.400;2024-02-26T09:59:25;13.70;;;11.43;;
2111;SDS011;1062;52.538;13.400;2024-02-26T10:01:52;15.40;;;11.47;;
2111;SDS011;1062;52.538;13.400;2024-02-26T10:04:18;13.67;;;11.97;;
2111;SDS011;1062;52.538;13.400;2024-02-26T10:06:45;14.57;;;12.43;;
2111;SDS011;1062;52.538;13.400;2024-02-26T10:09:12;45.93;;;26.50;;
2111;SDS011;1062;52.538;13.400;2024-02-26T10:11:37;13.60;;;11.53;;
2111;SDS011;1062;52.538;13.400;2024-02-26T10:14:05;18.60;;;11.27;;
2111;SDS011;1062;52.538;13.400;2024-02-26T10:16:30;13.33;;;10.17;;
2111;SDS011;1062;52.538;13.400;2024-02-26T10:18:58;11.83;;;10.50;;
2111;SDS011;1062;52.538;13.400;2024-02-26T10:21:23;16.33;;;10.07;;
2111;SDS011;1062;52.538;13.400;2024-02-26T10:23:49;10.93;;;9.50;;
2111;SDS011;1062;52.538;13.400;2024-02-26T10:26:18;12.63;;;10.40;;
2111;SDS011;1062;52.538;13.400;2024-02-26T10:28:45;11.20;;;10.10;;
2111;SDS011;1062;52.538;13.400;2024-02-26T10:31:11;10.50;;;9.40;;
2111;SDS011;1062;52.538;13.400;2024-02-26T10:33:39;16.70;;;11.93;;
2111;SDS011;1062;52.538;13.400;2024-02-26T10:36:06;12.73;;;9.83;;
2111;SDS011;1062;52.538;13.400;2024-02-26T10:38:33;11.73;;;9.93;;
2111;SDS011;1062;52.538;13.400;2024-02-26T10:41:03;13.77;;;10.73;;
2111;SDS011;1062;52.538;13.400;2024-02-26T10:43:31;12.73;;;10.60;;
2111;SDS011;1062;52.538;13.400;2024-02-26T10:45:57;11.07;;;9.83;;
2111;SDS011;1062;52.538;13.400;2024-02-26T10:48:23;12.43;;;9.27;;
2111;SDS011;1062;52.538;13.400;2024-02-26T10:50:49;13.50;;;8.60;;
2111;SDS011;1062;52.538;13.400;2024-02-26T10:53:25;11.03;;;9.83;;
2111;SDS011;1062;52.538;13.400;2024-02-26T10:55:57;7.83;;;6.90;;
2111;SDS011;1062;52.538;13.400;2024-02-26T10:58:28;10.53;;;8.30;;
2111;SDS011;1062;52.538;13.400;2024-02-26T11:00:54;10.93;;;9.10;;
2111;SDS011;1062;52.538;13.400;2024-02-26T11:03:21;9.13;;;8.17;;
2111;SDS011;1062;52.538;13.400;2024-02-26T11:05:48;12.20;;;9.53;;
2111;SDS011;1062;52.538;13.400;2024-02-26T11:08:14;10.40;;;8.37;;
2111;SDS011;1062;52.538;13.400;2024-02-26T11:10:43;14.30;;;9.93;;
2111;SDS011;1062;52.538;13.400;2024-02-26T11:13:12;10.77;;;9.30;;
2111;SDS011;1062;52.538;13.400;2024-02-26T11:15:40;10.40;;;9.33;;
2111;SDS011;1062;52.538;13.400;2024-02-26T11:18:07;9.53;;;8.43;;
2111;SDS011;1062;52.538;13.400;2024-02-26T11:20:34;9.50;;;8.37;;
2111;SDS011;1062;52.538;13.400;2024-02-26T11:23:03;9.97;;;7.80;;
2111;SDS011;1062;52.538;13.400;2024-02-26T11:25:29;11.60;;;9.87;;
2111;SDS011;1062;52.538;13.400;2024-02-26T11:27:55;10.13;;;9.03;;
2111;SDS011;1062;52.538;13.400;2024-02-26T11:30:26;13.00;;;8.57;;
2111;SDS011;1062;52.538;13.400;2024-02-26T11:32:56;10.10;;;9.10;;
2111;SDS011;1062;52.538;13.400;2024-02-26T11:35:22;16.57;;;10.43;;
2111;SDS011;1062;52.538;13.400;2024-02-26T11:37:55;12.63;;;10.90;;
2111;SDS011;1062;52.538;13.400;2024-02-26T11:40:22;13.57;;;9.53;;
2111;SDS011;1062;52.538;13.400;2024-02-26T11:42:50;11.80;;;9.70;;
2111;SDS011;1062;52.538;13.400;2024-02-26T11:46:03;11.33;;;10.17;;
2111;SDS011;1062;52.538;13.400;2024-02-26T11:48:04;12.80;;;10.37;;
2111;SDS011;1062;52.538;13.400;2024-02-26T11:50:45;11.17;;;10.03;;
2111;SDS011;1062;52.538;13.400;2024-02-26T11:53:30;11.83;;;9.93;;
2111;SDS011;1062;52.538;13.400;2024-02-26T11:59:04;12.87;;;10.10;;
2111;SDS011;1062;52.538;13.400;2024-02-26T12:01:38;11.70;;;10.60;;
2111;SDS011;1062;52.538;13.400;2024-02-26T12:04:14;17.13;;;11.13;;
2111;SDS011;1062;52.538;13.400;2024-02-26T12:06:45;13.80;;;10.80;;
2111;SDS011;1062;52.538;13.400;2024-02-26T12:09:36;10.73;;;9.27;;
2111;SDS011;1062;52.538;13.400;2024-02-26T12:12:09;14.13;;;11.13;;
2111;SDS011;1062;52.538;13.400;2024-02-26T12:14:39;13.70;;;10.73;;
2111;SDS011;1062;52.538;13.400;2024-02-26T12:17:06;15.60;;;10.67;;
2111;SDS011;1062;52.538;13.400;2024-02-26T12:19:43;12.50;;;11.00;;
2111;SDS011;1062;52.538;13.400;2024-02-26T12:22:10;13.10;;;11.47;;
2111;SDS011;1062;52.538;13.400;2024-02-26T12:24:38;13.67;;;11.47;;
2111;SDS011;1062;52.538;13.400;2024-02-26T12:27:04;11.30;;;9.97;;
2111;SDS011;1062;52.538;13.400;2024-02-26T12:29:29;13.10;;;10.30;;
2111;SDS011;1062;52.538;13.400;2024-02-26T12:31:55;12.90;;;10.77;;
2111;SDS011;1062;52.538;13.400;2024-02-26T12:34:20;13.33;;;10.67;;
2111;SDS011;1062;52.538;13.400;2024-02-26T12:36:47;10.10;;;9.10;;
2111;SDS011;1062;52.538;13.400;2024-02-26T12:39:13;10.60;;;8.10;;
2111;SDS011;1062;52.538;13.400;2024-02-26T12:41:38;14.23;;;8.37;;
2111;SDS011;1062;52.538;13.400;2024-02-26T12:44:05;11.10;;;8.70;;
2111;SDS011;1062;52.538;13.400;2024-02-26T12:46:32;16.20;;;8.70;;
2111;SDS011;1062;52.538;13.400;2024-02-26T12:48:58;10.40;;;7.93;;
2111;SDS011;1062;52.538;13.400;2024-02-26T12:51:24;9.30;;;8.20;;
2111;SDS011;1062;52.538;13.400;2024-02-26T12:53:51;8.27;;;7.17;;
2111;SDS011;1062;52.538;13.400;2024-02-26T12:56:18;9.40;;;7.00;;
2111;SDS011;1062;52.538;13.400;2024-02-26T12:58:44;10.23;;;8.23;;
2111;SDS011;1062;52.538;13.400;2024-02-26T13:01:13;10.17;;;7.93;;
2111;SDS011;1062;52.538;13.400;2024-02-26T13:03:40;7.20;;;6.23;;
2111;SDS011;1062;52.538;13.400;2024-02-26T13:06:07;7.40;;;6.63;;
2111;SDS011;1062;52.538;13.400;2024-02-26T13:08:33;6.37;;;5.77;;
2111;SDS011;1062;52.538;13.400;2024-02-26T13:10:59;7.10;;;6.17;;
2111;SDS011;1062;52.538;13.400;2024-02-26T13:13:25;7.60;;;6.90;;
2111;SDS011;1062;52.538;13.400;2024-02-26T13:16:01;7.27;;;6.50;;
2111;SDS011;1062;52.538;13.400;2024-02-26T13:18:28;8.47;;;6.33;;
2111;SDS011;1062;52.538;13.400;2024-02-26T13:21:05;6.17;;;5.30;;
2111;SDS011;1062;52.538;13.400;2024-02-26T13:23:37;7.70;;;6.90;;
2111;SDS011;1062;52.538;13.400;2024-02-26T13:26:04;7.90;;;4.87;;
2111;SDS011;1062;52.538;13.400;2024-02-26T13:28:30;4.90;;;4.50;;
2111;SDS011;1062;52.538;13.400;2024-02-26T13:30:56;5.30;;;4.80;;
2111;SDS011;1062;52.538;13.400;2024-02-26T13:33:23;6.03;;;4.50;;
2111;SDS011;1062;52.538;13.400;2024-02-26T13:35:49;6.30;;;5.23;;
2111;SDS011;1062;52.538;13.400;2024-02-26T13:38:15;5.10;;;4.33;;
2111;SDS011;1062;52.538;13.400;2024-02-26T13:40:41;4.73;;;4.20;;
2111;SDS011;1062;52.538;13.400;2024-02-26T13:43:06;6.30;;;4.30;;
2111;SDS011;1062;52.538;13.400;2024-02-26T13:45:35;4.57;;;3.77;;
2111;SDS011;1062;52.538;13.400;2024-02-26T13:48:03;7.30;;;4.60;;
2111;SDS011;1062;52.538;13.400;2024-02-26T13:50:30;5.60;;;3.40;;
2111;SDS011;1062;52.538;13.400;2024-02-26T13:52:55;5.70;;;3.77;;
2111;SDS011;1062;52.538;13.400;2024-02-26T13:55:22;5.10;;;3.90;;
2111;SDS011;1062;52.538;13.400;2024-02-26T13:57:51;4.00;;;3.40;;
2111;SDS011;1062;52.538;13.400;2024-02-26T14:00:18;5.60;;;3.40;;
2111;SDS011;1062;52.538;13.400;2024-02-26T14:02:44;4.77;;;3.93;;
2111;SDS011;1062;52.538;13.400;2024-02-26T14:05:10;4.83;;;3.63;;
2111;SDS011;1062;52.538;13.400;2024-02-26T14:07:36;7.97;;;3.67;;
2111;SDS011;1062;52.538;13.400;2024-02-26T14:10:02;7.33;;;4.20;;
2111;SDS011;1062;52.538;13.400;2024-02-26T14:12:28;6.63;;;4.00;;
2111;SDS011;1062;52.538;13.400;2024-02-26T14:14:53;5.97;;;4.50;;
2111;SDS011;1062;52.538;13.400;2024-02-26T14:17:20;5.60;;;4.37;;
2111;SDS011;1062;52.538;13.400;2024-02-26T14:19:47;6.73;;;4.00;;
2111;SDS011;1062;52.538;13.400;2024-02-26T14:22:13;5.30;;;4.80;;
2111;SDS011;1062;52.538;13.400;2024-02-26T14:24:41;4.20;;;3.80;;
2111;SDS011;1062;52.538;13.400;2024-02-26T14:27:10;5.47;;;4.97;;
2111;SDS011;1062;52.538;13.400;2024-02-26T14:29:40;6.17;;;5.57;;
2111;SDS011;1062;52.538;13.400;2024-02-26T14:32:08;7.23;;;5.60;;
2111;SDS011;1062;52.538;13.400;2024-02-26T14:34:34;5.83;;;4.50;;
2111;SDS011;1062;52.538;13.400;2024-02-26T14:36:59;8.30;;;6.30;;
2111;SDS011;1062;52.538;13.400;2024-02-26T14:39:25;8.40;;;6.57;;
2111;SDS011;1062;52.538;13.400;2024-02-26T14:41:50;7.13;;;5.77;;
2111;SDS011;1062;52.538;13.400;2024-02-26T14:44:16;6.00;;;4.80;;